Time;durP1;ratioP1;P1;durP2;ratioP2;P2;SDS_P1;SDS_P2;PMS_P1;PMS_P2;Temp;Humidity;BMP_temperature;BMP_pressure;BME280_temperature;BME280_humidity;BME280_pressure;Samples;Min_cycle;Max_cycle;Signal;HPM_P1;HPM_P2
2023/09/12 00:02:00;;;;;;;;;;;;;;;23.30;55.79;101553.19;5054347;28;19917;-81
2023/09/12 00:04:25;;;;;;;;;;;;;;;23.30;55.80;101547.88;5040858;28;19925;-80
2023/09/12 00:06:51;;;;;;;;;;;;;;;23.30;55.83;101546.09;5046342;28;20359;-81
2023/09/12 00:09:16;;;;;;;;;;;;;;;23.30;55.86;101543.41;5044990;28;19917;-81
2023/09/12 00:11:42;;;;;;;;;;;;;;;23.31;55.80;101539.91;5045559;28;20005;-80
2023/09/12 00:14:08;;;;;;;;;;;;;;;23.28;55.83;101542.53;5040702;28;20412;-80
2023/09/12 00:16:34;;;;;;;;;;;;;;;23.30;55.77;101534.53;5054166;28;20370;-81
2023/09/12 00:18:59;;;;;;;;;;;;;;;23.31;55.99;101539.00;5040035;28;19926;-83
2023/09/12 00:21:25;;;;;;;;;;;;;;;23.28;55.87;101537.19;5053220;28;19916;-80
2023/09/12 00:23:50;;;;;;;;;;;;;;;23.26;55.86;101532.69;5049705;28;19925;-80
2023/09/12 00:26:15;;;;;;;;;;;;;;;23.25;55.95;101544.25;5053509;28;19916;-82
2023/09/12 00:28:41;;;;;;;;;;;;;;;23.26;55.65;101538.03;5039354;28;20356;-80
2023/09/12 00:31:06;;;;;;;;;;;;;;;23.26;55.81;101540.69;5041205;28;19917;-81
2023/09/12 00:33:32;;;;;;;;;;;;;;;23.22;55.80;101546.84;5049520;28;20003;-80
2023/09/12 00:35:57;;;;;;;;;;;;;;;23.24;55.86;101540.69;5037792;28;20401;-80
2023/09/12 00:38:23;;;;;;;;;;;;;;;23.26;55.73;101538.03;5036140;28;19925;-81
2023/09/12 00:40:48;;;;;;;;;;;;;;;23.23;55.83;101536.22;5051223;28;20046;-79
2023/09/12 00:43:14;;;;;;;;;;;;;;;23.26;55.71;101538.94;5052525;28;19936;-81
2023/09/12 00:45:39;;;;;;;;;;;;;;;23.23;55.76;101544.22;5045950;28;20412;-81
2023/09/12 00:48:05;;;;;;;;;;;;;;;23.23;55.83;101538.00;5033873;28;20386;-83
2023/09/12 00:50:30;;;;;;;;;;;;;;;23.23;55.65;101543.34;5052012;28;19920;-82
2023/09/12 00:52:56;;;;;;;;;;;;;;;23.23;55.61;101549.53;5061330;28;19919;-81
2023/09/12 00:55:21;;;;;;;;;;;;;;;23.25;55.50;101546.91;5053554;28;19935;-83
2023/09/12 00:57:47;;;;;;;;;;;;;;;23.23;55.73;101540.66;5053432;28;19919;-80
2023/09/12 01:00:13;;;;;;;;;;;;;;;23.22;55.59;101545.09;5044801;28;20401;-81
2023/09/12 01:02:42;;;;;;;;;;;;;;;23.18;55.81;101543.28;5057037;28;19973;-80
2023/09/12 01:05:07;;;;;;;;;;;;;;;23.21;55.70;101542.41;5057014;28;19932;-81
2023/09/12 01:07:33;;;;;;;;;;;;;;;23.16;55.60;101531.69;5039304;28;19916;-81
2023/09/12 01:09:58;;;;;;;;;;;;;;;23.19;55.62;101531.72;5050308;28;19976;-82
2023/09/12 01:12:24;;;;;;;;;;;;;;;23.20;55.62;101529.94;5039026;28;20417;-81
2023/09/12 01:14:49;;;;;;;;;;;;;;;23.15;55.73;101530.78;5052498;28;20415;-81
2023/09/12 01:17:15;;;;;;;;;;;;;;;23.17;55.78;101530.81;5054264;28;19927;-81
2023/09/12 01:19:40;;;;;;;;;;;;;;;23.17;55.52;101534.34;5052351;28;20413;-81
2023/09/12 01:22:24;;;;;;;;;;;;;;;23.20;55.54;101532.63;5034308;28;19916;-81
2023/09/12 01:24:52;;;;;;;;;;;;;;;23.16;55.66;101534.34;5050904;28;19920;-81
2023/09/12 01:27:21;;;;;;;;;;;;;;;23.20;55.55;101546.84;5052590;28;19923;-81
2023/09/12 01:29:46;;;;;;;;;;;;;;;23.17;55.56;101544.13;5026772;28;19913;-81
2023/09/12 01:32:14;;;;;;;;;;;;;;;23.18;55.36;101532.63;5027950;28;19924;-81
2023/09/12 01:34:39;;;;;;;;;;;;;;;23.12;55.46;101538.72;5032939;28;19920;-81
2023/09/12 01:37:05;;;;;;;;;;;;;;;23.13;55.53;101531.63;5047223;28;19920;-81
2023/09/12 01:39:30;;;;;;;;;;;;;;;23.14;55.34;101534.31;5041241;28;20664;-80
2023/09/12 01:41:56;;;;;;;;;;;;;;;23.15;55.42;101537.88;5034607;28;19916;-80
2023/09/12 01:44:23;;;;;;;;;;;;;;;23.12;55.42;101529.84;5034182;28;19920;-82
2023/09/12 01:46:49;;;;;;;;;;;;;;;23.07;55.67;101532.47;5033845;28;20011;-82
2023/09/12 01:49:15;;;;;;;;;;;;;;;23.11;55.47;101536.03;5025389;28;19976;-82
2023/09/12 01:51:40;;;;;;;;;;;;;;;23.11;55.54;101539.63;5042722;28;19979;-83
2023/09/12 01:54:06;;;;;;;;;;;;;;;23.07;55.58;101540.44;5034261;28;20406;-82
2023/09/12 01:56:31;;;;;;;;;;;;;;;23.08;55.58;101542.22;5029075;28;19931;-83
2023/09/12 01:58:56;;;;;;;;;;;;;;;23.09;55.58;101537.78;5055356;28;20506;-82
2023/09/12 02:01:22;;;;;;;;;;;;;;;23.08;55.42;101533.34;5028975;28;20367;-81
2023/09/12 02:03:47;;;;;;;;;;;;;;;23.13;55.36;101536.97;5060700;28;20372;-83
2023/09/12 02:06:13;;;;;;;;;;;;;;;23.07;55.45;101532.47;5031320;28;19921;-81
2023/09/12 02:08:38;;;;;;;;;;;;;;;23.08;55.43;101533.34;5034588;28;19920;-81
2023/09/12 02:11:03;;;;;;;;;;;;;;;23.04;55.58;101535.06;5021829;28;20031;-81
2023/09/12 02:13:29;;;;;;;;;;;;;;;23.02;55.43;101534.13;5032828;28;19917;-81
2023/09/12 02:16:01;;;;;;;;;;;;;;;23.04;55.49;101535.06;5029015;28;19917;-81
2023/09/12 02:18:26;;;;;;;;;;;;;;;23.04;55.40;101534.16;5031689;28;20409;-80
2023/09/12 02:20:51;;;;;;;;;;;;;;;23.03;55.45;101527.97;5033755;28;19917;-81
2023/09/12 02:23:17;;;;;;;;;;;;;;;23.02;55.29;101526.16;5032912;28;19949;-81
2023/09/12 02:25:42;;;;;;;;;;;;;;;23.02;55.52;101525.25;5031644;28;20383;-81
2023/09/12 02:28:08;;;;;;;;;;;;;;;23.00;55.47;101524.31;5042119;28;20287;-81
2023/09/12 02:30:33;;;;;;;;;;;;;;;23.02;55.43;101526.16;5028550;28;20357;-82
2023/09/12 02:32:59;;;;;;;;;;;;;;;22.97;55.43;101530.50;5039543;28;19944;-82
2023/09/12 02:35:24;;;;;;;;;;;;;;;23.00;55.36;101532.28;5036617;28;19913;-80
2023/09/12 02:37:49;;;;;;;;;;;;;;;23.01;55.43;101527.03;5032101;28;19956;-81
2023/09/12 02:40:15;;;;;;;;;;;;;;;23.01;55.47;101534.09;5032048;28;19975;-82
2023/09/12 02:42:40;;;;;;;;;;;;;;;23.02;55.41;101538.59;5026044;28;20474;-80
2023/09/12 02:45:06;;;;;;;;;;;;;;;23.01;55.43;101537.69;5029699;28;19921;-80
2023/09/12 02:47:31;;;;;;;;;;;;;;;23.00;55.46;101534.97;5018311;28;19953;-81
2023/09/12 02:49:57;;;;;;;;;;;;;;;23.01;55.35;101545.69;5022570;28;19967;-81
2023/09/12 02:52:22;;;;;;;;;;;;;;;22.93;55.56;101541.97;5019116;28;20370;-81
2023/09/12 02:54:48;;;;;;;;;;;;;;;22.95;55.58;101545.56;5031591;28;20390;-82
2023/09/12 02:57:13;;;;;;;;;;;;;;;22.92;55.59;101540.16;5023834;28;19917;-82
2023/09/12 02:59:38;;;;;;;;;;;;;;;22.97;55.45;101547.38;5021754;28;20390;-82
2023/09/12 03:02:04;;;;;;;;;;;;;;;22.96;55.30;101539.34;5027496;28;19913;-82
2023/09/12 03:04:29;;;;;;;;;;;;;;;22.90;55.54;101542.81;5042297;28;19927;-81
2023/09/12 03:06:55;;;;;;;;;;;;;;;22.93;55.50;101547.28;5046646;28;19967;-82
2023/09/12 03:09:22;;;;;;;;;;;;;;;22.91;55.55;101549.94;5050360;28;19939;-80
2023/09/12 03:11:49;;;;;;;;;;;;;;;22.91;55.55;101549.03;5045813;28;20006;-81
2023/09/12 03:14:14;;;;;;;;;;;;;;;22.91;55.45;101543.72;5039858;28;19917;-81
2023/09/12 03:16:39;;;;;;;;;;;;;;;22.91;55.50;101549.03;5050939;28;19923;-82
2023/09/12 03:19:05;;;;;;;;;;;;;;;22.89;55.49;101548.13;5060114;28;19921;-81
2023/09/12 03:21:30;;;;;;;;;;;;;;;22.87;55.51;101552.53;5051311;28;19916;-83
2023/09/12 03:23:56;;;;;;;;;;;;;;;22.87;55.49;101555.19;5051767;28;20295;-83
2023/09/12 03:26:21;;;;;;;;;;;;;;;22.90;55.31;101557.88;5048841;28;19938;-84
2023/09/12 03:28:48;;;;;;;;;;;;;;;22.89;55.45;101558.78;5056956;28;20404;-83
2023/09/12 03:31:14;;;;;;;;;;;;;;;22.85;55.60;101556.94;5044164;28;20386;-84
2023/09/12 03:33:42;;;;;;;;;;;;;;;22.85;55.51;101564.91;5050703;28;19956;-83
2023/09/12 03:36:08;;;;;;;;;;;;;;;22.83;55.39;101562.22;5047919;28;19920;-83
2023/09/12 03:38:34;;;;;;;;;;;;;;;22.82;55.62;101567.50;5045698;28;19928;-84
2023/09/12 03:40:59;;;;;;;;;;;;;;;22.86;55.51;101564.03;5053876;28;19975;-83
2023/09/12 03:43:25;;;;;;;;;;;;;;;22.86;55.50;101572.94;5052440;28;19929;-83
2023/09/12 03:45:50;;;;;;;;;;;;;;;22.87;55.47;101573.81;5052858;28;19920;-83
2023/09/12 03:48:16;;;;;;;;;;;;;;;22.84;55.62;101573.75;5042604;28;20331;-86
2023/09/12 03:50:41;;;;;;;;;;;;;;;22.82;55.53;101571.09;5039899;28;20547;-85
2023/09/12 03:53:06;;;;;;;;;;;;;;;22.81;55.60;101574.63;5051473;28;20429;-86
2023/09/12 03:55:32;;;;;;;;;;;;;;;22.84;55.42;101582.69;5052607;28;20003;-86
2023/09/12 03:58:00;;;;;;;;;;;;;;;22.81;55.57;101582.59;5033774;28;20198;-85
2023/09/12 04:00:25;;;;;;;;;;;;;;;22.82;55.54;101584.41;5054088;28;19999;-85
2023/09/12 04:02:50;;;;;;;;;;;;;;;22.86;55.46;101583.59;5041062;28;20027;-84
2023/09/12 04:05:16;;;;;;;;;;;;;;;22.84;55.51;101593.31;5052579;28;19921;-85
2023/09/12 04:07:42;;;;;;;;;;;;;;;22.85;55.42;101594.22;5044337;28;19983;-84
2023/09/12 04:10:08;;;;;;;;;;;;;;;22.85;55.32;101594.22;5035850;28;19917;-84
2023/09/12 04:12:33;;;;;;;;;;;;;;;22.83;55.44;101591.50;5044765;28;19964;-82
2023/09/12 04:14:58;;;;;;;;;;;;;;;22.80;55.33;101595.91;5048784;28;19917;-83
2023/09/12 04:17:24;;;;;;;;;;;;;;;22.81;55.56;101590.59;5046537;28;20504;-83
2023/09/12 04:19:49;;;;;;;;;;;;;;;22.79;55.41;101605.66;5056742;28;20023;-82
2023/09/12 04:22:15;;;;;;;;;;;;;;;22.79;55.46;101604.75;5051153;28;20381;-83
2023/09/12 04:24:40;;;;;;;;;;;;;;;22.78;55.49;101603.88;5050489;28;19960;-82
2023/09/12 04:27:05;;;;;;;;;;;;;;;22.80;55.45;101595.91;5043699;28;20407;-83
2023/09/12 04:29:37;;;;;;;;;;;;;;;22.79;55.46;101596.78;5041391;28;19917;-84
2023/09/12 04:32:05;;;;;;;;;;;;;;;22.77;55.48;101592.34;5050767;28;19922;-81
2023/09/12 04:34:30;;;;;;;;;;;;;;;22.74;55.60;101594.94;5047312;28;19932;-83
2023/09/12 04:36:56;;;;;;;;;;;;;;;22.75;55.37;101595.81;5055148;28;19917;-84
2023/09/12 04:39:21;;;;;;;;;;;;;;;22.76;55.53;101597.63;5047174;28;19928;-82
2023/09/12 04:41:47;;;;;;;;;;;;;;;22.76;55.54;101592.28;5046610;28;20015;-82
2023/09/12 04:44:12;;;;;;;;;;;;;;;22.76;55.51;101590.53;5048447;28;19917;-81
2023/09/12 04:46:38;;;;;;;;;;;;;;;22.75;55.55;101588.75;5049185;28;20382;-83
2023/09/12 04:49:03;;;;;;;;;;;;;;;22.76;55.55;101597.63;5051510;28;19924;-84
2023/09/12 04:51:29;;;;;;;;;;;;;;;22.74;55.55;101589.59;5044288;28;20464;-83
2023/09/12 04:53:54;;;;;;;;;;;;;;;22.76;55.50;101594.97;5025625;28;19925;-83
2023/09/12 04:56:20;;;;;;;;;;;;;;;22.76;55.48;101593.19;5045893;28;19943;-85
2023/09/12 04:58:45;;;;;;;;;;;;;;;22.77;55.45;101594.06;5038993;28;19927;-84
2023/09/12 05:01:11;;;;;;;;;;;;;;;22.74;55.49;101594.03;5051400;28;20014;-83
2023/09/12 05:03:36;;;;;;;;;;;;;;;22.75;55.55;101593.16;5050405;28;20309;-85
2023/09/12 05:06:03;;;;;;;;;;;;;;;22.74;55.57;101602.03;5030714;28;19972;-83
2023/09/12 05:08:29;;;;;;;;;;;;;;;22.71;55.65;101591.31;5050126;28;19923;-83
2023/09/12 05:10:54;;;;;;;;;;;;;;;22.71;55.50;101591.31;5048780;28;20003;-82
2023/09/12 05:13:19;;;;;;;;;;;;;;;22.70;55.57;101597.50;5047536;28;19921;-84
2023/09/12 05:15:45;;;;;;;;;;;;;;;22.76;55.57;101600.28;5047906;28;20393;-84
2023/09/12 05:18:10;;;;;;;;;;;;;;;22.74;55.48;101602.91;5039418;28;19967;-85
2023/09/12 05:20:36;;;;;;;;;;;;;;;22.73;55.42;101603.78;5049618;28;20409;-85
2023/09/12 05:23:01;;;;;;;;;;;;;;;22.70;55.63;101608.16;5046604;28;19925;-85
2023/09/12 05:25:27;;;;;;;;;;;;;;;22.72;55.66;101609.97;5049653;28;19920;-83
2023/09/12 05:27:52;;;;;;;;;;;;;;;22.71;55.66;101608.19;5042310;28;19917;-82
2023/09/12 05:30:18;;;;;;;;;;;;;;;22.70;55.69;101603.72;5045101;28;19953;-84
2023/09/12 05:32:43;;;;;;;;;;;;;;;22.70;55.62;101600.19;5044174;28;20381;-80
2023/09/12 05:35:09;;;;;;;;;;;;;;;22.71;55.53;101597.56;5049806;28;19925;-84
2023/09/12 05:37:34;;;;;;;;;;;;;;;22.70;55.72;101608.16;5031500;28;20377;-82
2023/09/12 05:40:00;;;;;;;;;;;;;;;22.71;55.65;101608.19;5047364;28;19921;-82
2023/09/12 05:42:25;;;;;;;;;;;;;;;22.68;55.76;101612.56;5031329;28;20361;-85
2023/09/12 05:44:54;;;;;;;;;;;;;;;22.65;55.86;101610.75;5028712;28;20340;-84
2023/09/12 05:47:21;;;;;;;;;;;;;;;22.69;55.79;101606.34;5050539;28;20113;-87
2023/09/12 05:49:47;;;;;;;;;;;;;;;22.71;55.75;101617.94;5033409;28;19916;-85
2023/09/12 05:52:12;;;;;;;;;;;;;;;22.69;55.83;101609.00;5049579;28;20012;-83
2023/09/12 05:54:38;;;;;;;;;;;;;;;22.68;55.92;101610.78;5033259;28;19999;-83
2023/09/12 05:57:03;;;;;;;;;;;;;;;22.71;55.81;101616.19;5051950;28;20419;-82
2023/09/12 05:59:29;;;;;;;;;;;;;;;22.64;55.98;101611.59;5038746;28;19921;-83
2023/09/12 06:01:55;;;;;;;;;;;;;;;22.66;55.94;101616.97;5038381;28;20007;-82
2023/09/12 06:04:20;;;;;;;;;;;;;;;22.63;56.10;101617.81;5044983;28;19917;-82
2023/09/12 06:06:46;;;;;;;;;;;;;;;22.61;56.18;101627.53;5044642;28;19912;-82
2023/09/12 06:09:11;;;;;;;;;;;;;;;22.62;56.18;101625.75;5041346;28;19921;-81
2023/09/12 06:11:37;;;;;;;;;;;;;;;22.68;56.10;101612.56;5042561;28;20296;-81
2023/09/12 06:14:02;;;;;;;;;;;;;;;22.66;56.02;101612.53;5045224;28;20434;-83
2023/09/12 06:16:27;;;;;;;;;;;;;;;22.64;56.11;101616.03;5043211;28;19967;-83
2023/09/12 06:18:53;;;;;;;;;;;;;;;22.66;56.19;101614.31;5035659;28;21003;-83
2023/09/12 06:21:20;;;;;;;;;;;;;;;22.67;56.15;101618.75;5044190;28;20401;-82
2023/09/12 06:23:46;;;;;;;;;;;;;;;22.63;56.30;101612.50;5045851;28;19917;-82
2023/09/12 06:26:12;;;;;;;;;;;;;;;22.66;56.26;101622.28;5045700;28;19924;-80
2023/09/12 06:28:37;;;;;;;;;;;;;;;22.65;56.29;101626.72;5035351;28;20019;-82
2023/09/12 06:31:03;;;;;;;;;;;;;;;22.65;56.13;101625.81;5048882;28;19940;-81
2023/09/12 06:33:28;;;;;;;;;;;;;;;22.68;56.21;101636.53;5050387;28;20330;-82
2023/09/12 06:35:54;;;;;;;;;;;;;;;22.67;56.20;101632.97;5046653;28;19921;-81
2023/09/12 06:38:20;;;;;;;;;;;;;;;22.67;56.19;101637.38;5034156;28;20000;-82
2023/09/12 06:40:47;;;;;;;;;;;;;;;22.66;56.44;101641.81;5043720;28;19956;-81
2023/09/12 06:43:12;;;;;;;;;;;;;;;22.64;56.35;101648.00;5048290;28;19924;-82
2023/09/12 06:45:38;;;;;;;;;;;;;;;22.63;56.49;101647.09;5046870;28;19951;-80
2023/09/12 06:48:04;;;;;;;;;;;;;;;22.61;56.56;101643.50;5049271;28;19967;-82
2023/09/12 06:50:29;;;;;;;;;;;;;;;22.66;56.55;101651.56;5047441;28;19964;-82
2023/09/12 06:52:55;;;;;;;;;;;;;;;22.64;56.50;101651.53;5046195;28;19916;-81
2023/09/12 06:55:23;;;;;;;;;;;;;;;22.68;56.33;101655.16;5048903;28;20369;-82
2023/09/12 06:57:49;;;;;;;;;;;;;;;22.65;56.48;101655.09;5049668;28;19916;-81
2023/09/12 07:00:14;;;;;;;;;;;;;;;22.66;56.42;101662.22;5050409;28;19920;-82
2023/09/12 07:02:40;;;;;;;;;;;;;;;22.67;56.37;101658.69;5047938;28;19992;-82
2023/09/12 07:05:05;;;;;;;;;;;;;;;22.69;56.49;101656.94;5050459;28;20025;-82
2023/09/12 07:07:31;;;;;;;;;;;;;;;22.66;56.58;101657.78;5043404;28;20015;-81
2023/09/12 07:09:57;;;;;;;;;;;;;;;22.66;56.73;101664.88;5041364;28;20356;-81
2023/09/12 07:12:23;;;;;;;;;;;;;;;22.65;56.65;101664.00;5043174;28;20401;-80
2023/09/12 07:14:50;;;;;;;;;;;;;;;22.64;56.62;101669.28;5053591;28;19964;-81
2023/09/12 07:17:16;;;;;;;;;;;;;;;22.64;56.67;101659.53;5053172;28;20309;-81
2023/09/12 07:19:42;;;;;;;;;;;;;;;22.64;56.72;101662.19;5053241;28;19921;-81
2023/09/12 07:22:07;;;;;;;;;;;;;;;22.67;56.53;101659.59;5050212;28;20430;-81
2023/09/12 07:24:32;;;;;;;;;;;;;;;22.66;56.66;101659.56;5053867;28;19970;-83
2023/09/12 07:26:58;;;;;;;;;;;;;;;22.64;56.78;101659.53;5053026;28;20598;-82
2023/09/12 07:29:23;;;;;;;;;;;;;;;22.67;56.60;101661.34;5034554;28;19917;-82
2023/09/12 07:31:51;;;;;;;;;;;;;;;22.69;56.66;101667.59;5049897;28;20385;-82
2023/09/12 07:34:17;;;;;;;;;;;;;;;22.67;56.66;101664.94;5048788;28;19963;-82
2023/09/12 07:36:42;;;;;;;;;;;;;;;22.68;56.62;101664.03;5053149;28;20365;-81
2023/09/12 07:39:08;;;;;;;;;;;;;;;22.65;56.55;101672.00;5052287;28;19921;-82
2023/09/12 07:41:33;;;;;;;;;;;;;;;22.64;56.79;101674.63;5052029;28;20412;-82
2023/09/12 07:44:01;;;;;;;;;;;;;;;22.63;56.78;101672.84;5034266;28;20043;-82
2023/09/12 07:46:26;;;;;;;;;;;;;;;22.67;56.71;101672.91;5045918;28;19924;-82
2023/09/12 07:48:52;;;;;;;;;;;;;;;22.61;56.93;101674.56;5044111;28;19924;-88
2023/09/12 07:51:18;;;;;;;;;;;;;;;22.52;57.28;101675.25;5039260;28;19995;-80
2023/09/12 07:53:43;;;;;;;;;;;;;;;22.62;56.89;101674.56;5047240;28;19968;-83
2023/09/12 07:56:12;;;;;;;;;;;;;;;22.64;56.91;101677.28;5044716;28;19912;-83
2023/09/12 07:58:38;;;;;;;;;;;;;;;22.60;56.86;101673.66;5047166;28;19921;-85
2023/09/12 08:01:09;;;;;;;;;;;;;;;22.59;57.08;101679.84;5033739;28;19971;-83
2023/09/12 08:03:36;;;;;;;;;;;;;;;22.62;57.04;101679.91;5050775;28;20441;-82
2023/09/12 08:06:01;;;;;;;;;;;;;;;22.64;57.24;101674.63;5052478;28;19927;-82
2023/09/12 08:08:27;;;;;;;;;;;;;;;22.63;56.99;101675.50;5040217;28;19917;-83
2023/09/12 08:10:52;;;;;;;;;;;;;;;22.58;57.18;101675.38;5048985;28;19912;-84
2023/09/12 08:13:17;;;;;;;;;;;;;;;22.52;57.48;101677.91;5021117;28;19946;-82
2023/09/12 08:15:43;;;;;;;;;;;;;;;22.54;57.26;101674.44;5046705;28;19913;-82
2023/09/12 08:18:08;;;;;;;;;;;;;;;22.50;57.72;101675.25;5045452;28;20412;-83
2023/09/12 08:20:34;;;;;;;;;;;;;;;22.46;57.88;101677.84;5046234;28;19917;-82
2023/09/12 08:22:59;;;;;;;;;;;;;;;22.43;58.02;101681.31;5051673;28;20011;-82
2023/09/12 08:25:24;;;;;;;;;;;;;;;22.44;58.12;101682.22;5032978;28;20355;-81
2023/09/12 08:27:50;;;;;;;;;;;;;;;22.43;57.64;101685.75;5028109;28;20400;-81
2023/09/12 08:30:15;;;;;;;;;;;;;;;22.44;57.81;101676.91;5033545;28;19917;-80
2023/09/12 08:32:43;;;;;;;;;;;;;;;22.44;57.93;101677.78;5015013;28;19917;-80
2023/09/12 08:35:09;;;;;;;;;;;;;;;22.50;57.65;101684.97;5012910;28;19953;-80
2023/09/12 08:37:35;;;;;;;;;;;;;;;22.51;57.71;101689.47;5039394;28;19917;-81
2023/09/12 08:40:00;;;;;;;;;;;;;;;22.49;57.66;101688.53;5044640;28;19917;-82
2023/09/12 08:42:27;;;;;;;;;;;;;;;22.62;57.35;101687.88;5046181;28;19917;-81
2023/09/12 08:44:53;;;;;;;;;;;;;;;22.63;57.49;101686.16;5045702;28;19920;-83
2023/09/12 08:47:18;;;;;;;;;;;;;;;22.61;57.53;101685.22;5026121;28;20335;-82
2023/09/12 08:49:44;;;;;;;;;;;;;;;22.69;57.33;101678.25;5014433;28;19917;-82
2023/09/12 08:52:09;;;;;;;;;;;;;;;22.63;57.56;101686.16;5051872;28;19912;-81
2023/09/12 08:54:35;;;;;;;;;;;;;;;22.64;57.54;101685.25;5051074;28;19913;-81
2023/09/12 08:57:03;;;;;;;;;;;;;;;22.59;57.97;101684.28;5052158;28;19919;-81
2023/09/12 08:59:29;;;;;;;;;;;;;;;22.57;57.81;101684.25;5033859;28;19967;-81
2023/09/12 09:01:55;;;;;;;;;;;;;;;22.60;57.79;101678.09;5051710;28;19917;-80
2023/09/12 09:04:21;;;;;;;;;;;;;;;22.65;57.62;101685.31;5049280;28;19976;-82
2023/09/12 09:06:46;;;;;;;;;;;;;;;22.56;57.93;101683.38;5040474;28;19925;-82
2023/09/12 09:09:12;;;;;;;;;;;;;;;22.59;57.85;101681.63;5032620;28;20413;-81
2023/09/12 09:11:37;;;;;;;;;;;;;;;22.52;58.01;101684.16;5034284;28;20450;-81
2023/09/12 09:14:03;;;;;;;;;;;;;;;22.62;57.80;101674.56;5033133;28;20393;-82
2023/09/12 09:16:28;;;;;;;;;;;;;;;22.61;57.78;101679.91;5052032;28;20399;-82
2023/09/12 09:18:57;;;;;;;;;;;;;;;22.59;57.96;101685.19;5052425;28;19966;-80
2023/09/12 09:21:25;;;;;;;;;;;;;;;22.59;57.93;101684.28;5040167;28;19919;-82
2023/09/12 09:23:51;;;;;;;;;;;;;;;22.56;57.92;101682.44;5036935;28;19923;-80
2023/09/12 09:26:17;;;;;;;;;;;;;;;22.54;58.03;101681.50;5033017;28;19913;-81
2023/09/12 09:28:43;;;;;;;;;;;;;;;22.55;58.05;101680.66;5032814;28;20005;-81
2023/09/12 09:31:12;;;;;;;;;;;;;;;22.59;57.94;101674.53;5034793;28;20381;-81
2023/09/12 09:33:38;;;;;;;;;;;;;;;22.54;58.21;101682.44;5045849;28;19920;-81
2023/09/12 09:36:04;;;;;;;;;;;;;;;22.56;57.78;101677.13;5037181;28;19912;-82
2023/09/12 09:38:29;;;;;;;;;;;;;;;22.56;58.00;101685.09;5045065;28;19917;-80
2023/09/12 09:40:55;;;;;;;;;;;;;;;22.59;58.02;101689.63;5034146;28;19919;-81
2023/09/12 09:43:21;;;;;;;;;;;;;;;22.55;58.10;101686.00;5052165;28;19919;-82
2023/09/12 09:45:46;;;;;;;;;;;;;;;22.57;58.32;101681.59;5044765;28;19913;-81
2023/09/12 09:48:21;;;;;;;;;;;;;;;22.54;58.11;101686.84;5045356;28;19913;-81
2023/09/12 09:50:47;;;;;;;;;;;;;;;22.62;58.10;101687.00;5034115;28;20523;-82
2023/09/12 09:53:12;;;;;;;;;;;;;;;22.59;58.26;101684.28;5051788;28;20015;-82
2023/09/12 09:55:37;;;;;;;;;;;;;;;22.60;58.33;101688.72;5051647;28;19913;-82
2023/09/12 09:58:05;;;;;;;;;;;;;;;22.60;58.10;101678.09;5034956;28;19931;-81
2023/09/12 10:00:32;;;;;;;;;;;;;;;22.60;58.33;101684.28;5041761;28;20318;-82
2023/09/12 10:02:57;;;;;;;;;;;;;;;22.57;58.40;101676.25;5019446;28;19962;-81
2023/09/12 10:05:23;;;;;;;;;;;;;;;22.59;58.39;101674.53;5040593;28;19924;-82
2023/09/12 10:07:50;;;;;;;;;;;;;;;22.60;58.22;101670.97;4985254;28;19924;-82
2023/09/12 10:10:16;;;;;;;;;;;;;;;22.58;58.55;101674.50;5023466;28;19921;-81
2023/09/12 10:13:00;;;;;;;;;;;;;;;22.58;58.36;101670.06;5015607;28;19913;-81
2023/09/12 10:15:28;;;;;;;;;;;;;;;22.58;58.27;101671.84;5020310;28;20004;-81
2023/09/12 10:17:59;;;;;;;;;;;;;;;22.60;58.40;101663.00;5007952;28;19940;-81
2023/09/12 10:20:25;;;;;;;;;;;;;;;22.59;58.17;101660.34;5030595;28;20019;-81
2023/09/12 10:23:00;;;;;;;;;;;;;;;22.63;58.11;101663.06;4995039;28;19917;-81
2023/09/12 10:25:25;;;;;;;;;;;;;;;22.66;58.12;101668.44;5025671;28;20299;-80
2023/09/12 10:27:51;;;;;;;;;;;;;;;22.74;57.76;101664.16;5013825;28;19920;-81
2023/09/12 10:30:17;;;;;;;;;;;;;;;22.73;57.83;101662.38;5002850;28;19968;-81
2023/09/12 10:32:42;;;;;;;;;;;;;;;22.68;57.98;101668.47;5031370;28;19971;-82
2023/09/12 10:35:07;;;;;;;;;;;;;;;22.61;58.21;101662.16;5009899;28;19921;-82
2023/09/12 10:37:33;;;;;;;;;;;;;;;22.61;58.34;101667.47;5028535;28;19924;-82
2023/09/12 10:39:59;;;;;;;;;;;;;;;22.67;58.20;101667.59;5029856;28;19972;-81
2023/09/12 10:42:25;;;;;;;;;;;;;;;22.68;58.11;101665.81;5008074;28;19991;-82
2023/09/12 10:44:50;;;;;;;;;;;;;;;22.73;58.09;101669.44;5022640;28;19932;-82
2023/09/12 10:47:16;;;;;;;;;;;;;;;22.71;57.93;101671.19;4998419;28;20325;-82
2023/09/12 10:49:43;;;;;;;;;;;;;;;22.69;58.04;101662.28;5028670;28;20378;-82
2023/09/12 10:52:08;;;;;;;;;;;;;;;22.69;58.13;101664.94;5017459;28;19920;-81
2023/09/12 10:54:38;;;;;;;;;;;;;;;22.71;58.10;101668.53;5034039;28;19918;-80
2023/09/12 10:57:03;;;;;;;;;;;;;;;22.76;57.90;101661.53;5023007;28;19913;-82
2023/09/12 10:59:47;;;;;;;;;;;;;;;22.76;57.85;101654.44;5036165;28;19917;-82
2023/09/12 11:02:32;;;;;;;;;;;;;;;22.70;58.05;101656.97;5035208;28;19944;-82
2023/09/12 11:04:57;;;;;;;;;;;;;;;22.71;58.04;101649.88;5023529;28;19948;-81
2023/09/12 11:07:34;;;;;;;;;;;;;;;22.71;57.96;101648.16;5045680;28;19963;-81
2023/09/12 11:10:31;;;;;;;;;;;;;;;22.65;58.19;101653.34;5029228;28;19923;-82
2023/09/12 11:12:56;;;;;;;;;;;;;;;22.69;58.09;101651.63;5036368;28;19952;-81
2023/09/12 11:15:26;;;;;;;;;;;;;;;22.70;58.00;101648.09;5043757;28;19948;-82
2023/09/12 11:18:07;;;;;;;;;;;;;;;22.67;58.14;101653.34;5052059;28;19919;-82
2023/09/12 11:20:52;;;;;;;;;;;;;;;22.64;58.13;101648.88;5041413;28;19917;-81
2023/09/12 11:23:18;;;;;;;;;;;;;;;22.70;57.87;101645.44;5055068;28;20000;-81
2023/09/12 11:25:43;;;;;;;;;;;;;;;22.68;57.94;101645.41;5053993;28;20366;-81
2023/09/12 11:28:09;;;;;;;;;;;;;;;22.68;58.03;101636.53;5027751;28;20422;-82
2023/09/12 11:30:34;;;;;;;;;;;;;;;22.74;57.71;101639.31;5041345;28;20007;-82
2023/09/12 11:33:02;;;;;;;;;;;;;;;22.77;57.64;101628.69;5054946;28;19976;-82
2023/09/12 11:35:28;;;;;;;;;;;;;;;22.83;57.57;101634.13;5036532;28;19913;-82
2023/09/12 11:37:55;;;;;;;;;;;;;;;22.88;57.20;101628.88;5054064;28;19939;-82
2023/09/12 11:40:33;;;;;;;;;;;;;;;22.88;57.27;101624.47;5041169;28;19921;-81
2023/09/12 11:42:58;;;;;;;;;;;;;;;22.90;57.01;101625.41;5054573;28;19913;-82
2023/09/12 11:45:24;;;;;;;;;;;;;;;23.10;56.67;101627.53;5054306;28;19920;-81
2023/09/12 11:47:49;;;;;;;;;;;;;;;23.02;56.82;101623.84;5053330;28;19974;-83
2023/09/12 11:50:33;;;;;;;;;;;;;;;23.13;56.36;101628.44;5054259;28;20429;-82
2023/09/12 11:53:03;;;;;;;;;;;;;;;23.17;56.19;101624.97;5053004;28;19913;-80
2023/09/12 11:55:30;;;;;;;;;;;;;;;23.26;56.21;101623.31;5041951;28;20015;-81
2023/09/12 11:57:56;;;;;;;;;;;;;;;23.21;56.24;101622.34;5034575;28;19967;-81
2023/09/12 12:00:21;;;;;;;;;;;;;;;23.14;56.50;101614.25;5041396;28;19917;-82
2023/09/12 12:02:47;;;;;;;;;;;;;;;23.11;56.56;101619.56;5033458;28;20012;-81
2023/09/12 12:05:12;;;;;;;;;;;;;;;23.14;56.48;101632.03;5034391;28;20413;-82
2023/09/12 12:07:38;;;;;;;;;;;;;;;23.18;56.39;101620.53;5048359;28;19924;-81
2023/09/12 12:10:03;;;;;;;;;;;;;;;23.08;56.63;101626.59;5029443;28;19936;-82
2023/09/12 12:12:29;;;;;;;;;;;;;;;23.10;56.50;101617.75;5048890;28;19913;-82
2023/09/12 12:14:54;;;;;;;;;;;;;;;23.10;56.52;101617.75;5041479;28;20377;-81
2023/09/12 12:17:22;;;;;;;;;;;;;;;23.18;56.40;101617.88;5040159;28;19924;-80
2023/09/12 12:19:47;;;;;;;;;;;;;;;23.09;56.63;101623.03;5042904;28;19980;-80
2023/09/12 12:22:13;;;;;;;;;;;;;;;23.11;56.74;101615.97;5047230;28;19952;-81
2023/09/12 12:24:42;;;;;;;;;;;;;;;23.16;56.52;101615.19;5041818;28;19913;-82
2023/09/12 12:27:08;;;;;;;;;;;;;;;23.14;56.53;101624.03;5040475;28;19920;-80
2023/09/12 12:29:34;;;;;;;;;;;;;;;23.13;56.53;101608.91;5047325;28;20337;-81
2023/09/12 12:32:01;;;;;;;;;;;;;;;23.15;56.55;101608.03;5041865;28;19914;-81